createdAt,value
2022-11-21T00:01:02.619Z,4.10
2022-11-21T00:03:29.717Z,4.10
2022-11-21T00:05:56.670Z,4.00
2022-11-21T00:08:23.574Z,4.00
2022-11-21T00:10:50.572Z,4.00
2022-11-21T00:13:21.099Z,4.00
2022-11-21T00:15:48.332Z,3.90
2022-11-21T00:18:15.867Z,3.90
2022-11-21T00:20:43.868Z,3.90
2022-11-21T00:23:11.438Z,3.90
2022-11-21T00:25:38.776Z,3.90
2022-11-21T00:28:06.337Z,3.90
2022-11-21T00:30:33.612Z,4.00
2022-11-21T00:33:00.543Z,4.00
2022-11-21T00:35:27.756Z,4.00
2022-11-21T00:37:54.580Z,4.00
2022-11-21T00:40:21.478Z,4.00
2022-11-21T00:42:48.354Z,4.00
2022-11-21T00:45:19.651Z,4.00
2022-11-21T00:47:49.695Z,4.00
2022-11-21T00:50:16.659Z,4.10
2022-11-21T00:52:43.538Z,4.10
2022-11-21T00:55:10.520Z,4.10
2022-11-21T00:57:37.492Z,4.10
2022-11-21T01:00:06.084Z,4.20
2022-11-21T01:02:33.301Z,4.20
2022-11-21T01:05:00.321Z,4.20
2022-11-21T01:07:27.200Z,4.20
2022-11-21T01:09:54.171Z,4.20
2022-11-21T01:12:21.106Z,4.30
2022-11-21T01:14:48.265Z,4.30
2022-11-21T01:17:15.281Z,4.30
2022-11-21T01:19:42.254Z,4.30
2022-11-21T01:22:09.310Z,4.30
2022-11-21T01:24:36.268Z,4.30
2022-11-21T01:27:03.168Z,4.30
2022-11-21T01:29:30.074Z,4.30
2022-11-21T01:31:56.978Z,4.30
2022-11-21T01:34:24.064Z,4.30
2022-11-21T01:36:50.965Z,4.30
2022-11-21T01:39:17.844Z,4.30
2022-11-21T01:41:45.656Z,4.30
2022-11-21T01:44:20.151Z,4.30
2022-11-21T01:46:48.054Z,4.30
2022-11-21T01:49:22.275Z,4.30
2022-11-21T01:51:58.678Z,4.30
2022-11-21T01:54:39.793Z,4.30
2022-11-21T01:57:06.688Z,4.30
2022-11-21T01:59:56.009Z,4.20
2022-11-21T02:02:26.298Z,4.20
2022-11-21T02:04:54.488Z,4.10
2022-11-21T02:07:24.618Z,4.00
2022-11-21T02:09:59.045Z,4.00
2022-11-21T02:12:31.581Z,3.90
2022-11-21T02:14:59.177Z,3.90
2022-11-21T02:17:28.963Z,3.90
2022-11-21T02:19:59.271Z,3.80
2022-11-21T02:22:50.458Z,3.80
2022-11-21T02:25:29.917Z,3.80
2022-11-21T02:28:01.226Z,3.80
2022-11-21T02:30:35.479Z,3.80
2022-11-21T02:33:02.427Z,3.70
2022-11-21T02:35:29.420Z,3.70
2022-11-21T02:38:20.953Z,3.70
2022-11-21T02:41:05.636Z,3.70
2022-11-21T02:43:52.788Z,3.70
2022-11-21T02:46:19.766Z,3.70
2022-11-21T02:48:46.977Z,3.70
2022-11-21T02:51:14.055Z,3.70
2022-11-21T02:53:40.978Z,3.80
2022-11-21T02:56:07.970Z,3.90
2022-11-21T02:58:35.349Z,3.80
2022-11-21T03:01:02.255Z,3.90
2022-11-21T03:03:29.140Z,3.90
2022-11-21T03:05:57.228Z,3.90
2022-11-21T03:08:24.227Z,3.90
2022-11-21T03:10:51.204Z,3.90
2022-11-21T03:13:18.160Z,3.90
2022-11-21T03:15:45.052Z,3.90
2022-11-21T03:18:11.957Z,4.00
2022-11-21T03:20:38.875Z,4.00
2022-11-21T03:23:05.803Z,4.00
2022-11-21T03:25:32.829Z,4.00
2022-11-21T03:27:59.715Z,4.00
2022-11-21T03:30:27.606Z,4.00
2022-11-21T03:32:58.292Z,4.00
2022-11-21T03:35:25.486Z,4.00
2022-11-21T03:37:53.022Z,3.90
2022-11-21T03:40:20.199Z,3.90
2022-11-21T03:42:47.131Z,3.90
2022-11-21T03:45:14.105Z,3.90
2022-11-21T03:47:41.332Z,3.90
2022-11-21T03:50:08.787Z,3.90
2022-11-21T03:52:35.736Z,3.90
2022-11-21T03:55:02.733Z,3.90
2022-11-21T03:57:29.583Z,4.00
2022-11-21T03:59:56.470Z,4.00
2022-11-21T04:02:23.434Z,4.10
2022-11-21T04:04:50.271Z,4.10
2022-11-21T04:07:17.252Z,4.10
2022-11-21T04:09:44.278Z,4.10
2022-11-21T04:12:11.152Z,4.10
2022-11-21T04:14:38.168Z,4.10
2022-11-21T04:17:05.181Z,4.10
2022-11-21T04:19:32.350Z,4.00
2022-11-21T04:21:59.246Z,4.00
2022-11-21T04:24:26.561Z,4.00
2022-11-21T04:26:55.658Z,4.00
2022-11-21T04:29:22.681Z,4.00
2022-11-21T04:31:49.690Z,3.90
2022-11-21T04:34:16.642Z,3.90
2022-11-21T04:36:43.621Z,3.90
2022-11-21T04:39:10.665Z,3.90
2022-11-21T04:41:37.633Z,3.90
2022-11-21T04:44:04.810Z,3.90
2022-11-21T04:46:31.803Z,3.80
2022-11-21T04:48:58.706Z,3.80
2022-11-21T04:51:25.752Z,3.80
2022-11-21T04:53:52.670Z,3.80
2022-11-21T04:56:19.654Z,3.80
2022-11-21T04:58:46.594Z,3.80
2022-11-21T05:01:18.107Z,3.80
2022-11-21T05:03:45.003Z,3.80
2022-11-21T05:06:12.071Z,3.70
2022-11-21T05:08:38.930Z,3.80
2022-11-21T05:11:24.239Z,3.80
2022-11-21T05:13:54.115Z,3.90
2022-11-21T05:16:21.109Z,3.90
2022-11-21T05:18:48.162Z,3.90
2022-11-21T05:21:15.034Z,3.90
2022-11-21T05:23:42.038Z,3.90
2022-11-21T05:26:08.952Z,4.00
2022-11-21T05:28:35.755Z,4.00
2022-11-21T05:31:02.766Z,4.00
2022-11-21T05:33:29.698Z,4.10
2022-11-21T05:35:56.691Z,4.10
2022-11-21T05:38:23.678Z,4.10
2022-11-21T05:40:53.195Z,4.10
2022-11-21T05:43:38.569Z,4.20
2022-11-21T05:46:05.572Z,4.20
2022-11-21T05:48:34.242Z,4.20
2022-11-21T05:51:01.250Z,4.20
2022-11-21T05:53:28.207Z,4.20
2022-11-21T05:55:55.220Z,4.20
2022-11-21T05:58:22.926Z,4.20
2022-11-21T06:00:49.959Z,4.20
2022-11-21T06:03:30.279Z,4.30
2022-11-21T06:06:04.379Z,4.30
2022-11-21T06:08:33.980Z,4.20
2022-11-21T06:11:01.976Z,4.20
2022-11-21T06:13:29.209Z,4.20
2022-11-21T06:16:02.418Z,4.20
2022-11-21T06:18:32.813Z,4.10
2022-11-21T06:21:08.164Z,4.10
2022-11-21T06:23:36.179Z,4.10
2022-11-21T06:26:05.644Z,4.10
2022-11-21T06:28:38.252Z,4.10
2022-11-21T06:31:05.952Z,4.10
2022-11-21T06:33:33.994Z,4.10
2022-11-21T06:36:04.213Z,4.00
2022-11-21T06:38:31.292Z,4.00
2022-11-21T06:40:58.673Z,4.00
2022-11-21T06:43:25.651Z,3.90
2022-11-21T06:45:55.350Z,3.90
2022-11-21T06:48:22.330Z,3.90
2022-11-21T06:50:49.413Z,3.90
2022-11-21T06:53:16.444Z,3.90
2022-11-21T06:55:43.518Z,3.80
2022-11-21T06:58:10.586Z,3.80
2022-11-21T07:00:37.556Z,3.80
2022-11-21T07:03:04.631Z,3.80
2022-11-21T07:05:31.675Z,3.80
2022-11-21T07:08:02.904Z,3.70
2022-11-21T07:10:30.781Z,4.20
2022-11-21T07:13:20.203Z,4.00
2022-11-21T07:15:49.020Z,3.90
2022-11-21T07:18:16.321Z,3.80
2022-11-21T07:20:43.393Z,3.80
2022-11-21T07:23:10.793Z,3.80
2022-11-21T07:25:39.635Z,3.70
2022-11-21T07:28:08.061Z,3.80
2022-11-21T07:30:36.544Z,3.70
2022-11-21T07:33:06.049Z,3.80
2022-11-21T07:35:34.408Z,3.70
2022-11-21T07:38:02.079Z,3.70
2022-11-21T07:40:29.459Z,3.70
2022-11-21T07:43:06.598Z,3.70
2022-11-21T07:45:36.787Z,3.80
2022-11-21T07:48:06.088Z,3.80
2022-11-21T07:50:33.692Z,3.90
2022-11-21T07:53:09.398Z,3.90
2022-11-21T07:55:40.418Z,3.90
2022-11-21T07:58:10.789Z,4.00
2022-11-21T08:00:39.896Z,4.00
2022-11-21T08:03:07.302Z,4.00
2022-11-21T08:05:38.622Z,4.00
2022-11-21T08:08:06.904Z,4.00
2022-11-21T08:10:37.165Z,4.10
2022-11-21T08:13:04.065Z,4.10
2022-11-21T08:15:31.040Z,4.10
2022-11-21T08:17:58.018Z,4.10
2022-11-21T08:20:25.099Z,4.20
2022-11-21T08:22:52.158Z,4.30
2022-11-21T08:25:19.102Z,4.30
2022-11-21T08:27:46.178Z,4.40
2022-11-21T08:30:13.830Z,4.40
2022-11-21T08:32:40.767Z,4.50
2022-11-21T08:35:08.350Z,4.50
2022-11-21T08:37:35.430Z,4.60
2022-11-21T08:40:02.500Z,4.60
2022-11-21T08:42:29.562Z,4.70
2022-11-21T08:44:56.436Z,4.70
2022-11-21T08:47:23.416Z,4.70
2022-11-21T08:49:50.719Z,4.70
2022-11-21T08:52:18.054Z,4.70
2022-11-21T08:54:45.540Z,4.80
2022-11-21T08:57:13.172Z,4.80
2022-11-21T08:59:40.324Z,4.80
2022-11-21T09:02:10.307Z,4.80
2022-11-21T09:04:37.387Z,4.80
2022-11-21T09:07:04.836Z,4.80
2022-11-21T09:09:31.966Z,4.80
2022-11-21T09:11:58.827Z,4.90
2022-11-21T09:14:44.395Z,4.90
2022-11-21T09:17:40.525Z,4.90
2022-11-21T09:20:08.348Z,5.00
2022-11-21T09:22:35.457Z,5.10
2022-11-21T09:25:02.424Z,5.30
2022-11-21T09:27:30.956Z,5.40
2022-11-21T09:29:57.931Z,5.40
2022-11-21T09:32:24.911Z,5.50
2022-11-21T09:34:51.790Z,5.60
2022-11-21T09:37:18.820Z,5.60
2022-11-21T09:39:45.809Z,5.70
2022-11-21T09:42:38.762Z,5.70
2022-11-21T09:45:14.872Z,5.80
2022-11-21T09:47:48.352Z,5.70
2022-11-21T09:50:15.325Z,5.80
2022-11-21T09:52:52.586Z,5.80
2022-11-21T09:55:34.517Z,5.80
2022-11-21T09:58:04.933Z,5.80
2022-11-21T10:00:32.315Z,5.90
2022-11-21T10:03:00.905Z,5.90
2022-11-21T10:05:43.869Z,5.90
2022-11-21T10:08:29.201Z,5.80
2022-11-21T10:11:19.920Z,5.90
2022-11-21T10:14:22.735Z,5.90
2022-11-21T10:17:26.798Z,6.00
2022-11-21T10:19:59.784Z,6.10
2022-11-21T10:22:54.666Z,6.00
2022-11-21T10:25:27.316Z,6.10
2022-11-21T10:28:04.565Z,6.10
2022-11-21T10:30:31.663Z,6.20
2022-11-21T10:33:05.830Z,6.20
2022-11-21T10:35:41.032Z,6.30
2022-11-21T10:38:26.972Z,6.30
2022-11-21T10:40:55.800Z,6.40
2022-11-21T10:44:19.165Z,6.40
2022-11-21T10:47:00.137Z,6.40
2022-11-21T10:49:30.432Z,6.40
2022-11-21T10:52:10.892Z,6.50
2022-11-21T10:55:02.915Z,6.50
2022-11-21T10:57:55.048Z,6.70
2022-11-21T11:00:26.911Z,6.70
2022-11-21T11:02:56.908Z,6.80
2022-11-21T11:05:26.295Z,6.90
2022-11-21T11:08:10.723Z,7.00
2022-11-21T11:11:03.926Z,7.10
2022-11-21T11:13:45.723Z,7.00
2022-11-21T11:16:18.213Z,7.10
2022-11-21T11:19:03.182Z,7.10
2022-11-21T11:21:41.689Z,7.10
2022-11-21T11:24:11.740Z,7.10
2022-11-21T11:27:02.834Z,7.10
2022-11-21T11:29:35.672Z,7.10
2022-11-21T11:32:17.859Z,7.10
2022-11-21T11:34:50.776Z,7.10
2022-11-21T11:37:25.108Z,7.10
2022-11-21T11:40:03.933Z,7.20
2022-11-21T11:42:58.518Z,7.20
2022-11-21T11:45:50.084Z,7.20
2022-11-21T11:48:19.819Z,7.20
2022-11-21T11:50:51.722Z,7.20
2022-11-21T11:53:48.626Z,7.30
2022-11-21T11:56:25.043Z,7.30
2022-11-21T11:59:01.610Z,7.30
2022-11-21T12:01:39.977Z,7.30
2022-11-21T12:04:16.993Z,7.30
2022-11-21T12:10:18.370Z,7.40
2022-11-21T12:13:12.905Z,7.40
2022-11-21T12:15:49.042Z,7.30
2022-11-21T12:18:16.222Z,7.30
2022-11-21T12:21:15.402Z,7.20
2022-11-21T12:23:49.499Z,7.30
2022-11-21T12:26:16.439Z,7.20
2022-11-21T12:28:49.614Z,7.30
2022-11-21T12:31:50.298Z,7.30
2022-11-21T12:34:29.216Z,7.40
2022-11-21T12:37:20.564Z,7.30
2022-11-21T12:40:00.564Z,7.40
2022-11-21T12:43:04.925Z,7.40
2022-11-21T12:45:38.038Z,7.90
2022-11-21T12:49:07.902Z,7.70
2022-11-21T12:51:56.442Z,7.60
2022-11-21T12:54:42.232Z,7.50
2022-11-21T12:57:14.005Z,7.40
2022-11-21T12:59:58.582Z,7.40
2022-11-21T13:02:57.782Z,7.40
2022-11-21T13:05:33.268Z,7.40
2022-11-21T13:08:13.848Z,7.40
2022-11-21T13:11:25.229Z,7.50
2022-11-21T13:14:03.289Z,7.50
2022-11-21T13:16:39.566Z,7.50
2022-11-21T13:19:17.300Z,7.50
2022-11-21T13:21:53.783Z,7.50
2022-11-21T13:24:47.053Z,7.50
2022-11-21T13:27:36.523Z,7.50
2022-11-21T13:30:11.413Z,7.60
2022-11-21T13:32:55.286Z,7.60
2022-11-21T13:35:22.224Z,7.70
2022-11-21T13:37:52.598Z,7.60
2022-11-21T13:40:31.620Z,7.70
2022-11-21T13:46:01.243Z,7.70
2022-11-21T13:48:31.363Z,7.80
2022-11-21T13:51:28.020Z,7.80
2022-11-21T13:53:58.730Z,7.80
2022-11-21T13:56:44.447Z,8.10
2022-11-21T13:59:39.200Z,8.00
2022-11-21T14:02:34.656Z,8.00
2022-11-21T14:05:19.821Z,7.90
2022-11-21T14:07:47.886Z,7.90
2022-11-21T14:10:34.336Z,7.90
2022-11-21T14:13:03.427Z,7.90
2022-11-21T14:15:30.849Z,7.80
2022-11-21T14:17:59.489Z,7.80
2022-11-21T14:20:56.931Z,8.00
2022-11-21T14:23:26.426Z,8.20
2022-11-21T14:26:03.478Z,8.20
2022-11-21T14:28:35.094Z,8.20
2022-11-21T14:31:04.566Z,8.10
2022-11-21T14:33:36.617Z,8.00
2022-11-21T14:36:09.086Z,8.00
2022-11-21T14:38:41.346Z,7.90
2022-11-21T14:41:26.813Z,7.80
2022-11-21T14:44:01.529Z,7.70
2022-11-21T14:46:34.800Z,7.70
2022-11-21T14:49:23.549Z,7.70
2022-11-21T14:52:12.203Z,7.80
2022-11-21T14:55:28.470Z,7.70
2022-11-21T14:57:45.127Z,7.70
2022-11-21T15:00:43.224Z,7.60
2022-11-21T15:03:03.642Z,7.60
2022-11-21T15:06:00.906Z,7.40
2022-11-21T15:11:13.277Z,7.40
2022-11-21T15:14:06.610Z,7.30
2022-11-21T15:16:28.319Z,7.30
2022-11-21T15:18:55.646Z,7.80
2022-11-21T15:21:22.689Z,8.00
2022-11-21T15:23:51.475Z,7.70
2022-11-21T15:26:32.721Z,7.70
2022-11-21T15:29:00.930Z,7.50
2022-11-21T15:31:28.446Z,7.30
2022-11-21T15:37:24.091Z,7.20
2022-11-21T15:39:53.079Z,7.00
2022-11-21T15:42:32.990Z,6.90
2022-11-21T15:45:01.032Z,6.80
2022-11-21T15:47:28.819Z,6.60
2022-11-21T15:49:55.845Z,6.50
2022-11-21T15:52:23.303Z,6.40
2022-11-21T15:54:50.295Z,6.40
2022-11-21T15:57:14.777Z,7.40
2022-11-21T15:59:45.765Z,6.20
2022-11-21T16:02:14.447Z,6.20
2022-11-21T16:04:42.260Z,6.20
2022-11-21T16:07:09.474Z,6.10
2022-11-21T16:09:37.375Z,6.00
2022-11-21T16:12:04.504Z,6.00
2022-11-21T16:14:31.486Z,6.00
2022-11-21T16:16:58.435Z,5.90
2022-11-21T16:19:25.949Z,5.90
2022-11-21T16:21:53.714Z,5.90
2022-11-21T16:24:21.141Z,5.90
2022-11-21T16:26:49.559Z,5.80
2022-11-21T16:29:16.550Z,5.80
2022-11-21T16:31:43.618Z,5.70
2022-11-21T16:34:10.568Z,5.60
2022-11-21T16:36:37.578Z,5.60
2022-11-21T16:39:09.911Z,5.60
2022-11-21T16:41:37.399Z,5.60
2022-11-21T16:44:04.480Z,5.40
2022-11-21T16:46:31.502Z,5.40
2022-11-21T16:49:00.757Z,5.30
2022-11-21T16:51:28.460Z,5.30
2022-11-21T16:53:57.445Z,5.20
2022-11-21T16:56:24.851Z,5.20
2022-11-21T16:58:51.822Z,5.10
2022-11-21T17:01:25.074Z,5.10
2022-11-21T17:03:52.969Z,5.10
2022-11-21T17:06:22.860Z,5.10
2022-11-21T17:08:50.118Z,5.00
2022-11-21T17:11:29.319Z,5.00
2022-11-21T17:14:00.177Z,5.00
2022-11-21T17:16:27.497Z,5.00
2022-11-21T17:18:55.970Z,5.00
2022-11-21T17:21:23.818Z,5.00
2022-11-21T17:23:51.347Z,5.00
2022-11-21T17:26:20.912Z,5.00
2022-11-21T17:28:54.464Z,5.00
2022-11-21T17:31:22.244Z,5.00
2022-11-21T17:33:52.009Z,5.00
2022-11-21T17:36:21.789Z,5.10
2022-11-21T17:38:49.982Z,5.00
2022-11-21T17:41:19.032Z,5.00
2022-11-21T17:43:47.287Z,5.00
2022-11-21T17:46:17.105Z,5.10
2022-11-21T17:48:49.757Z,5.10
2022-11-21T17:51:20.092Z,5.00
2022-11-21T17:53:49.066Z,5.00
2022-11-21T17:56:21.806Z,5.00
2022-11-21T17:58:49.184Z,5.00
2022-11-21T18:01:19.736Z,4.90
2022-11-21T18:03:48.684Z,4.90
2022-11-21T18:06:17.466Z,4.90
2022-11-21T18:08:48.291Z,4.90
2022-11-21T18:11:24.135Z,5.00
2022-11-21T18:13:51.038Z,4.50
2022-11-21T18:16:20.714Z,5.00
2022-11-21T18:18:49.828Z,5.00
2022-11-21T18:21:20.327Z,5.00
2022-11-21T18:23:47.628Z,5.00
2022-11-21T18:26:17.604Z,5.00
2022-11-21T18:28:44.618Z,5.00
2022-11-21T18:31:14.426Z,5.00
2022-11-21T18:33:42.707Z,5.00
2022-11-21T18:36:11.283Z,5.00
2022-11-21T18:38:49.277Z,5.00
2022-11-21T18:41:21.771Z,5.00
2022-11-21T18:43:53.950Z,5.00
2022-11-21T18:46:22.050Z,5.00
2022-11-21T18:49:02.827Z,5.00
2022-11-21T18:51:31.979Z,5.00
2022-11-21T18:54:04.264Z,5.00
2022-11-21T18:56:31.474Z,4.90
2022-11-21T18:58:59.199Z,4.90
2022-11-21T19:01:28.924Z,4.90
2022-11-21T19:03:57.477Z,4.90
2022-11-21T19:06:26.440Z,4.90
2022-11-21T19:08:55.691Z,4.90
2022-11-21T19:11:24.869Z,4.80
2022-11-21T19:13:53.318Z,4.80
2022-11-21T19:16:24.940Z,4.80
2022-11-21T19:21:44.409Z,4.80
2022-11-21T19:24:16.474Z,4.80
2022-11-21T19:26:43.801Z,4.80
2022-11-21T19:29:11.142Z,4.80
2022-11-21T19:31:44.663Z,4.80
2022-11-21T19:34:13.190Z,4.80
2022-11-21T19:36:40.305Z,4.80
2022-11-21T19:39:07.684Z,4.90
2022-11-21T19:41:34.849Z,4.90
2022-11-21T19:44:02.775Z,4.90
2022-11-21T19:46:38.794Z,4.90
2022-11-21T19:49:07.365Z,4.90
2022-11-21T19:51:37.634Z,4.90
2022-11-21T19:54:06.552Z,4.90
2022-11-21T19:56:34.246Z,4.90
2022-11-21T19:59:01.160Z,4.90
2022-11-21T20:01:30.215Z,4.90
2022-11-21T20:03:59.539Z,4.90
2022-11-21T20:06:31.851Z,4.90
2022-11-21T20:09:10.982Z,4.90
2022-11-21T20:11:41.029Z,4.90
2022-11-21T20:14:08.571Z,4.90
2022-11-21T20:16:38.808Z,4.90
2022-11-21T20:19:08.446Z,4.90
2022-11-21T20:21:35.978Z,4.90
2022-11-21T20:24:03.795Z,4.90
2022-11-21T20:26:31.359Z,4.90
2022-11-21T20:28:58.608Z,4.90
2022-11-21T20:31:31.154Z,4.90
2022-11-21T20:34:04.423Z,5.00
2022-11-21T20:36:34.642Z,4.90
2022-11-21T20:39:07.218Z,5.00
2022-11-21T20:41:36.895Z,4.90
2022-11-21T20:46:53.357Z,5.00
2022-11-21T20:49:20.281Z,5.00
2022-11-21T20:53:26.279Z,5.00
2022-11-21T20:54:35.371Z,5.00
2022-11-21T20:57:02.411Z,5.00
2022-11-21T20:59:29.766Z,5.00
2022-11-21T21:01:57.022Z,5.00
2022-11-21T21:04:24.065Z,5.00
2022-11-21T21:06:51.050Z,5.00
2022-11-21T21:09:17.916Z,5.00
2022-11-21T21:11:53.377Z,5.00
2022-11-21T21:14:22.016Z,5.00
2022-11-21T21:16:49.805Z,4.90
2022-11-21T21:19:17.205Z,4.90
2022-11-21T21:21:44.198Z,4.90
2022-11-21T21:24:12.197Z,4.90
2022-11-21T21:26:44.924Z,4.90
2022-11-21T21:29:13.923Z,4.90
2022-11-21T21:31:45.217Z,4.90
2022-11-21T21:34:13.973Z,4.90
2022-11-21T21:36:40.916Z,5.00
2022-11-21T21:39:07.816Z,4.90
2022-11-21T21:41:35.825Z,4.90
2022-11-21T21:44:02.665Z,4.90
2022-11-21T21:46:29.607Z,4.90
2022-11-21T21:48:57.936Z,4.90
2022-11-21T21:51:30.540Z,4.90
2022-11-21T21:53:59.112Z,4.90
2022-11-21T21:56:28.054Z,4.90
2022-11-21T21:58:56.981Z,4.80
2022-11-21T22:01:26.725Z,4.80
2022-11-21T22:03:58.748Z,4.80
2022-11-21T22:06:26.233Z,4.80
2022-11-21T22:08:54.784Z,4.80
2022-11-21T22:11:24.346Z,4.80
2022-11-21T22:13:56.815Z,4.80
2022-11-21T22:16:24.009Z,4.80
2022-11-21T22:18:51.638Z,4.80
2022-11-21T22:21:29.720Z,4.80
2022-11-21T22:24:23.763Z,4.80
2022-11-21T22:26:45.259Z,4.80
2022-11-21T22:29:12.202Z,4.80
2022-11-21T22:31:39.150Z,4.80
2022-11-21T22:34:05.997Z,4.80
2022-11-21T22:36:33.444Z,4.90
2022-11-21T22:39:00.294Z,4.90
2022-11-21T22:41:27.630Z,4.90
2022-11-21T22:43:59.198Z,4.90
2022-11-21T22:46:28.002Z,4.80
2022-11-21T22:48:55.304Z,4.80
2022-11-21T22:51:24.956Z,4.90
2022-11-21T22:53:52.286Z,4.90
2022-11-21T22:56:21.655Z,4.90
2022-11-21T22:58:49.392Z,4.90
2022-11-21T23:01:19.595Z,4.90
2022-11-21T23:03:47.117Z,4.90
2022-11-21T23:06:23.519Z,4.90
2022-11-21T23:08:51.697Z,4.90
2022-11-21T23:11:22.844Z,4.90
2022-11-21T23:13:50.531Z,4.90
2022-11-21T23:16:18.067Z,4.90
2022-11-21T23:18:45.659Z,4.90
2022-11-21T23:21:13.495Z,5.00
2022-11-21T23:23:41.025Z,5.00
2022-11-21T23:26:08.005Z,5.00
2022-11-21T23:28:35.142Z,5.00
2022-11-21T23:31:02.197Z,5.00
2022-11-21T23:33:29.211Z,5.00
2022-11-21T23:35:56.367Z,5.00
2022-11-21T23:38:23.381Z,5.00
2022-11-21T23:40:50.395Z,5.10
2022-11-21T23:43:18.464Z,5.00
2022-11-21T23:45:53.004Z,5.10
2022-11-21T23:48:20.629Z,5.10
2022-11-21T23:50:48.270Z,5.10
2022-11-21T23:53:15.381Z,5.10
2022-11-21T23:55:43.901Z,5.10
2022-11-21T23:58:11.752Z,5.10
